Time;durP1;ratioP1;P1;durP2;ratioP2;P2;SDS_P1;SDS_P2;PMS_P1;PMS_P2;Temp;Humidity;BMP_temperature;BMP_pressure;BME280_temperature;BME280_humidity;BME280_pressure;Samples;Min_cycle;Max_cycle;Signal;HPM_P1;HPM_P2
2021/12/24 00:02:45;;;;;;;0.75;0.75;;;7.70;98.70;6.80;100365.00;;;;30789952;28;20039;-75
2021/12/24 00:17:49;;;;;;;3.92;3.72;;;7.90;98.50;6.90;100349.00;;;;30766216;28;20047;-75
2021/12/24 00:48:16;;;;;;;1.48;1.38;;;8.20;98.70;7.10;100340.00;;;;30745570;28;20039;-75
2021/12/24 01:03:17;;;;;;;0.57;0.57;;;8.20;98.60;7.20;100317.00;;;;30736963;28;20051;-74
2021/12/24 01:57:05;;;;;;;0.20;0.20;;;8.60;98.50;7.50;100309.00;;;;31160232;28;20519;-76
2021/12/24 02:12:09;;;;;;;;;;;8.60;98.50;7.60;100305.00;;;;31155095;28;20073;-76
2021/12/24 02:36:44;;;;;;;0.20;0.20;;;8.70;98.80;7.70;100296.00;;;;31413381;27;20439;-76
2021/12/24 03:07:17;;;;;;;0.60;0.60;;;9.00;99.00;8.00;100270.00;;;;31316359;28;20049;-76
2021/12/24 03:22:44;;;;;;;0.52;0.52;;;9.10;99.10;8.20;100266.00;;;;31337764;28;20128;-76
2021/12/24 03:37:46;;;;;;;0.20;0.20;;;9.30;99.10;8.40;100290.00;;;;31292245;28;20044;-77
2021/12/24 03:53:03;;;;;;;0.22;0.22;;;9.60;98.70;8.60;100276.00;;;;31263202;28;20124;-77
2021/12/24 04:08:06;;;;;;;0.30;0.30;;;9.70;99.30;8.70;100289.00;;;;31270137;28;20041;-78
2021/12/24 05:09:39;;;;;;;0.20;0.20;;;9.90;99.20;8.90;100269.00;;;;31264050;28;20128;-77
2021/12/24 05:24:41;;;;;;;0.30;0.30;;;9.90;97.90;8.90;100294.00;;;;31259558;28;20064;-78
2021/12/24 05:39:43;;;;;;;2.75;0.43;;;9.90;97.70;8.90;100285.00;;;;31253066;28;20878;-79
2021/12/24 05:54:46;;;;;;;0.22;0.22;;;9.90;97.50;8.80;100320.00;;;;31228462;28;20045;-78
2021/12/24 06:09:52;;;;;;;0.52;0.52;;;9.80;97.40;8.80;100320.00;;;;31219104;28;20053;-80
2021/12/24 06:24:53;;;;;;;0.10;0.10;;;9.80;96.80;8.80;100312.00;;;;31215982;28;20060;-79
2021/12/24 06:39:55;;;;;;;0.43;0.43;;;9.70;96.60;8.70;100333.00;;;;31253096;28;20049;-79
2021/12/24 06:54:56;;;;;;;0.10;0.10;;;9.70;96.50;8.60;100313.00;;;;31225343;28;20042;-79
2021/12/24 07:09:59;;;;;;;2.55;1.75;;;9.60;96.40;8.60;100323.00;;;;31251554;28;20053;-79
2021/12/24 07:25:00;;;;;;;0.20;0.20;;;9.70;96.80;8.60;100335.00;;;;31259989;28;20480;-79
2021/12/24 07:40:04;;;;;;;0.10;0.10;;;9.70;96.40;8.50;100336.00;;;;31267591;28;20052;-79
2021/12/24 07:55:10;;;;;;;0.82;0.80;;;9.50;96.30;8.50;100348.00;;;;31269363;28;20051;-79
2021/12/24 08:10:12;;;;;;;0.10;0.10;;;9.50;96.40;8.50;100354.00;;;;31249379;28;20041;-78
2021/12/24 08:25:13;;;;;;;0.10;0.10;;;9.50;96.20;8.50;100338.00;;;;31257359;28;20092;-79
2021/12/24 08:40:20;;;;;;;0.20;0.20;;;9.50;96.20;8.50;100334.00;;;;31242849;28;20037;-79
2021/12/24 08:55:22;;;;;;;0.10;0.10;;;9.50;96.20;8.50;100342.00;;;;31246790;28;20048;-79
2021/12/24 09:10:24;;;;;;;0.20;0.20;;;9.60;96.20;8.50;100333.00;;;;31238832;28;20105;-79
2021/12/24 09:25:24;;;;;;;0.30;0.30;;;9.60;96.00;8.60;100324.00;;;;31248541;28;20684;-79
2021/12/24 09:40:29;;;;;;;0.10;0.10;;;9.60;95.70;8.60;100308.00;;;;31243575;28;20037;-80
2021/12/24 09:55:31;;;;;;;0.20;0.20;;;9.70;96.30;8.70;100303.00;;;;31232055;28;20520;-79
2021/12/24 10:10:35;;;;;;;0.52;0.52;;;9.70;95.70;8.70;100299.00;;;;31240222;28;20037;-81
2021/12/24 10:25:36;;;;;;;0.20;0.20;;;9.70;95.60;8.70;100313.00;;;;31225880;28;20088;-80
2021/12/24 10:40:52;;;;;;;1.02;1.00;;;9.70;95.70;8.80;100314.00;;;;31246108;28;20045;-80
2021/12/24 10:55:54;;;;;;;0.20;0.20;;;9.80;96.10;8.80;100315.00;;;;31256196;28;20068;-80
2021/12/24 11:10:59;;;;;;;0.40;0.40;;;9.80;95.60;8.80;100313.00;;;;31272538;28;20179;-80
2021/12/24 11:26:30;;;;;;;0.20;0.20;;;9.80;95.60;8.80;100303.00;;;;31265443;28;20045;-81
2021/12/24 11:41:45;;;;;;;0.20;0.20;;;9.80;95.60;8.90;100295.00;;;;31279052;28;20508;-80
2021/12/24 11:56:51;;;;;;;0.30;0.30;;;11.50;95.70;9.10;100275.00;;;;31239966;28;20552;-81
2021/12/24 12:12:04;;;;;;;0.10;0.10;;;10.10;95.30;9.10;100286.00;;;;31239916;28;20045;-80
2021/12/24 12:27:44;;;;;;;0.13;0.13;;;10.10;95.00;9.10;100298.00;;;;31241118;28;20069;-81
2021/12/24 12:43:05;;;;;;;0.17;0.17;;;10.10;95.00;9.00;100288.00;;;;31257362;28;20518;-80
2021/12/24 12:58:21;;;;;;;0.20;0.20;;;10.10;95.30;9.10;100275.00;;;;31262147;28;20131;-80
2021/12/24 13:13:23;;;;;;;0.20;0.20;;;10.00;95.70;9.10;100262.00;;;;31240781;28;20069;-80
2021/12/24 13:28:24;;;;;;;0.20;0.20;;;10.30;95.40;9.10;100270.00;;;;31228749;28;20049;-80
2021/12/24 13:43:27;;;;;;;0.10;0.10;;;10.10;95.20;9.10;100269.00;;;;31245719;28;20040;-81
2021/12/24 13:58:30;;;;;;;0.20;0.20;;;11.90;95.60;9.00;100280.00;;;;31241513;28;20048;-80
2021/12/24 14:14:15;;;;;;;0.10;0.10;;;10.00;95.10;9.00;100271.00;;;;31223914;28;20061;-80
2021/12/24 14:29:44;;;;;;;0.10;0.10;;;10.00;94.90;9.00;100281.00;;;;31197974;28;20049;-81
2021/12/24 14:44:49;;;;;;;0.20;0.20;;;10.00;95.00;9.00;100279.00;;;;31243476;28;20166;-79
2021/12/24 14:59:52;;;;;;;0.20;0.20;;;9.90;95.10;8.90;100285.00;;;;31237657;28;20041;-80
2021/12/24 15:14:53;;;;;;;0.17;0.17;;;9.90;95.30;8.80;100293.00;;;;31241060;28;20041;-80
2021/12/24 15:29:54;;;;;;;0.28;0.28;;;9.80;95.40;8.80;100286.00;;;;31229965;28;20077;-80
2021/12/24 15:44:56;;;;;;;1.20;0.63;;;9.80;95.40;8.80;100295.00;;;;31264138;28;20054;-80
2021/12/24 15:59:59;;;;;;;0.10;0.10;;;9.80;95.40;8.70;100319.00;;;;31276060;28;20056;-80
2021/12/24 16:15:01;;;;;;;0.17;0.17;;;9.70;95.50;8.70;100317.00;;;;31251339;28;20421;-79
2021/12/24 16:30:09;;;;;;;0.20;0.20;;;9.60;96.00;8.60;100332.00;;;;31267920;28;20064;-78
2021/12/24 16:45:10;;;;;;;0.10;0.10;;;9.60;96.10;8.50;100336.00;;;;31260961;28;20570;-79
2021/12/24 17:00:13;;;;;;;0.50;0.50;;;9.90;96.20;8.20;100349.00;;;;31251381;28;20558;-77
2021/12/24 17:15:19;;;;;;;0.80;0.80;;;9.30;96.40;8.00;100354.00;;;;31236327;28;20603;-78
2021/12/24 17:30:22;;;;;;;0.22;0.22;;;8.90;96.20;7.70;100353.00;;;;31248503;28;20634;-77
2021/12/24 18:18:50;;;;;;;0.20;0.20;;;8.70;97.00;7.70;100368.00;;;;31218944;28;20049;-76
2021/12/24 18:33:51;;;;;;;;;;;8.50;95.20;7.10;100365.00;;;;31221272;28;20556;-76
2021/12/24 18:56:42;;;;;;;1.00;1.00;;;8.00;95.70;6.60;100386.00;;;;31375363;27;1344324;-77
2021/12/24 19:11:44;;;;;;;0.32;0.32;;;7.80;95.90;6.60;100409.00;;;;31222736;28;20076;-78
2021/12/24 19:26:45;;;;;;;0.10;0.10;;;7.80;95.70;6.60;100409.00;;;;31261617;28;20594;-77
2021/12/24 19:41:54;;;;;;;0.20;0.20;;;7.80;95.80;6.60;100406.00;;;;31237262;28;20500;-75
2021/12/24 19:56:56;;;;;;;0.20;0.20;;;7.80;96.00;6.50;100415.00;;;;31288721;28;20741;-77
2021/12/24 20:11:58;;;;;;;0.20;0.20;;;7.70;96.20;6.60;100421.00;;;;31191651;28;20058;-76
2021/12/24 20:27:00;;;;;;;0.20;0.20;;;7.80;96.30;6.50;100421.00;;;;31263253;28;20045;-75
2021/12/24 20:42:01;;;;;;;0.50;0.50;;;7.70;95.80;6.40;100437.00;;;;31150502;28;20045;-75
2021/12/24 20:57:03;;;;;;;0.20;0.20;;;7.10;95.50;6.40;100423.00;;;;31164764;28;20072;-75
2021/12/24 21:12:05;;;;;;;1.05;1.05;;;7.60;95.90;6.30;100435.00;;;;31173629;28;20135;-75
2021/12/24 21:27:07;;;;;;;0.17;0.17;;;7.50;96.10;6.20;100434.00;;;;31135803;28;20053;-75
2021/12/24 21:42:10;;;;;;;0.20;0.20;;;7.40;95.60;6.30;100424.00;;;;31161132;28;20053;-75
2021/12/24 21:57:13;;;;;;;0.20;0.20;;;7.40;95.70;6.30;100427.00;;;;31160368;28;20052;-75
2021/12/24 22:12:15;;;;;;;0.20;0.20;;;7.10;96.10;6.20;100436.00;;;;31191695;28;20039;-75
2021/12/24 22:27:17;;;;;;;1.00;1.00;;;7.40;95.60;6.10;100448.00;;;;31149662;28;20049;-76
2021/12/24 22:42:22;;;;;;;0.20;0.20;;;7.30;95.50;6.00;100459.00;;;;31146595;28;20592;-75
2021/12/24 22:57:23;;;;;;;0.27;0.27;;;7.20;95.60;5.90;100461.00;;;;31163578;28;20121;-77
2021/12/24 23:12:26;;;;;;;0.20;0.20;;;7.10;95.70;5.90;100456.00;;;;31197870;28;20033;-75
2021/12/24 23:27:28;;;;;;;0.20;0.20;;;;;5.90;100455.00;;;;31291106;28;20098;-75
2021/12/24 23:51:41;;;;;;;0.27;0.27;;;7.10;95.80;5.80;100461.00;;;;31677918;27;1339127;-77
